createdAt,value
2022-08-11T00:01:33.344Z,100888.37
2022-08-11T00:04:36.140Z,100879.19
2022-08-11T00:07:42.629Z,100877.63
2022-08-11T00:10:44.478Z,100873.78
2022-08-11T00:13:47.007Z,100872.62
2022-08-11T00:17:00.259Z,100871.56
2022-08-11T00:20:11.939Z,100865.03
2022-08-11T00:23:17.380Z,100874.31
2022-08-11T00:26:21.210Z,100850.59
2022-08-11T00:29:23.122Z,100867.44
2022-08-11T00:32:24.938Z,100861.97
2022-08-11T00:35:50.820Z,100859.41
2022-08-11T00:38:51.011Z,100863.44
2022-08-11T00:42:02.481Z,100866.09
2022-08-11T00:45:13.584Z,100868.78
2022-08-11T00:48:15.499Z,100863.06
2022-08-11T00:51:24.312Z,100863.41
2022-08-11T00:54:32.890Z,100853.53
2022-08-11T00:57:57.141Z,100862.81
2022-08-11T01:01:04.592Z,100861.28
2022-08-11T01:04:25.141Z,100861.06
2022-08-11T01:08:02.011Z,100867.56
2022-08-11T01:11:04.066Z,100868.97
2022-08-11T01:14:33.682Z,100862.97
2022-08-11T01:17:55.159Z,100857.25
2022-08-11T01:21:03.381Z,100854.56
2022-08-11T01:24:05.550Z,100857.22
2022-08-11T01:27:18.771Z,100860.59
2022-08-11T01:30:40.652Z,100850.53
2022-08-11T01:33:42.502Z,100850.59
2022-08-11T01:36:44.320Z,100855.84
2022-08-11T01:39:52.561Z,100851.94
2022-08-11T01:43:16.317Z,100849.09
2022-08-11T01:46:27.006Z,100848.56
2022-08-11T01:50:09.862Z,100842.88
2022-08-11T01:53:11.759Z,100842.12
2022-08-11T01:56:33.301Z,100837.09
2022-08-11T01:59:36.421Z,100837.50
2022-08-11T02:02:47.759Z,100837.66
2022-08-11T02:06:30.706Z,100841.44
2022-08-11T02:09:49.523Z,100832.03
2022-08-11T02:12:55.813Z,100828.34
2022-08-11T02:16:17.714Z,100833.63
2022-08-11T02:19:46.118Z,100839.38
2022-08-11T02:24:06.917Z,100832.94
2022-08-11T02:27:09.973Z,100838.59
2022-08-11T02:30:13.074Z,100827.91
2022-08-11T02:33:24.875Z,100819.72
2022-08-11T02:36:36.654Z,100829.53
2022-08-11T02:39:40.907Z,100826.50
2022-08-11T02:42:45.876Z,100828.91
2022-08-11T02:45:47.938Z,100822.56
2022-08-11T02:49:08.490Z,100828.75
2022-08-11T02:52:29.329Z,100815.56
2022-08-11T02:55:48.030Z,100805.66
2022-08-11T02:59:22.031Z,100814.38
2022-08-11T03:02:33.195Z,100814.28
2022-08-11T03:05:38.142Z,100814.41
2022-08-11T03:08:58.851Z,100795.56
2022-08-11T03:12:31.630Z,100813.19
2022-08-11T03:16:01.037Z,100817.56
2022-08-11T03:19:11.266Z,100819.22
2022-08-11T03:22:17.512Z,100830.22
2022-08-11T03:25:31.690Z,100822.56
2022-08-11T03:28:38.384Z,100824.16
2022-08-11T03:31:48.254Z,100819.41
2022-08-11T03:34:50.103Z,100824.03
2022-08-11T03:37:55.614Z,100809.94
2022-08-11T03:41:59.279Z,100822.22
2022-08-11T03:45:05.555Z,100825.50
2022-08-11T03:48:14.245Z,100824.75
2022-08-11T03:51:27.621Z,100825.88
2022-08-11T03:54:59.322Z,100819.31
2022-08-11T03:58:10.145Z,100830.09
2022-08-11T04:01:32.403Z,100819.16
2022-08-11T04:04:35.709Z,100821.22
2022-08-11T04:07:40.659Z,100828.06
2022-08-11T04:11:01.079Z,100832.81
2022-08-11T04:14:42.487Z,100836.19
2022-08-11T04:18:02.491Z,100834.59
2022-08-11T04:21:22.809Z,100835.22
2022-08-11T04:24:54.734Z,100832.16
2022-08-11T04:28:28.513Z,100835.59
2022-08-11T04:31:50.564Z,100837.41
2022-08-11T04:35:08.746Z,100828.78
2022-08-11T04:38:25.929Z,100839.81
2022-08-11T04:42:09.381Z,100835.72
2022-08-11T04:45:20.602Z,100836.78
2022-08-11T04:48:43.570Z,100837.25
2022-08-11T04:52:08.571Z,100848.94
2022-08-11T04:55:48.135Z,100836.22
2022-08-11T04:59:23.195Z,100842.53
2022-08-11T05:02:31.195Z,100850.09
2022-08-11T05:05:56.168Z,100850.37
2022-08-11T05:09:14.858Z,100847.56
2022-08-11T05:12:20.980Z,100850.63
2022-08-11T05:15:54.682Z,100854.72
2022-08-11T05:19:15.996Z,100850.37
2022-08-11T05:22:37.317Z,100842.75
2022-08-11T05:26:43.687Z,100852.50
2022-08-11T05:29:58.859Z,100855.78
2022-08-11T05:33:19.956Z,100851.50
2022-08-11T05:36:43.658Z,100857.78
2022-08-11T05:40:05.749Z,100865.38
2022-08-11T05:43:31.005Z,100866.53
2022-08-11T05:46:58.362Z,100854.72
2022-08-11T05:50:19.122Z,100867.56
2022-08-11T05:53:51.987Z,100857.13
2022-08-11T05:56:58.255Z,100853.09
2022-08-11T06:00:02.467Z,100854.66
2022-08-11T06:03:07.681Z,100864.59
2022-08-11T06:06:09.556Z,100856.72
2022-08-11T06:09:14.617Z,100854.28
2022-08-11T06:12:24.065Z,100855.72
2022-08-11T06:15:26.104Z,100849.72
2022-08-11T06:18:28.177Z,100854.13
2022-08-11T06:21:32.236Z,100850.53
2022-08-11T06:24:34.982Z,100844.75
2022-08-11T06:27:37.428Z,100839.72
2022-08-11T06:30:40.554Z,100838.34
2022-08-11T06:33:45.608Z,100848.28
2022-08-11T06:36:51.732Z,100839.56
2022-08-11T06:39:56.904Z,100851.56
2022-08-11T06:43:03.123Z,100844.09
2022-08-11T06:46:07.019Z,100850.22
2022-08-11T06:49:29.582Z,100834.25
2022-08-11T06:52:35.839Z,100846.69
2022-08-11T06:56:02.357Z,100833.66
2022-08-11T06:59:22.890Z,100844.22
2022-08-11T07:02:31.226Z,100844.47
2022-08-11T07:05:44.058Z,100832.88
2022-08-11T07:09:10.773Z,100815.63
2022-08-11T07:12:41.562Z,100823.87
2022-08-11T07:16:10.868Z,100820.69
2022-08-11T07:19:26.445Z,100829.59
2022-08-11T07:22:47.441Z,100829.34
2022-08-11T07:26:10.896Z,100827.44
2022-08-11T07:29:14.228Z,100825.69
2022-08-11T07:32:17.719Z,100823.34
2022-08-11T07:35:25.151Z,100832.00
2022-08-11T07:38:43.285Z,100828.56
2022-08-11T07:41:47.675Z,100823.19
2022-08-11T07:45:08.493Z,100821.31
2022-08-11T07:48:29.871Z,100826.09
2022-08-11T07:51:50.726Z,100822.34
2022-08-11T07:54:52.807Z,100821.47
2022-08-11T07:58:16.840Z,100818.06
2022-08-11T08:01:41.181Z,100805.78
2022-08-11T08:05:01.845Z,100820.41
2022-08-11T08:08:22.364Z,100809.81
2022-08-11T08:11:43.725Z,100815.66
2022-08-11T08:15:04.481Z,100794.41
2022-08-11T08:18:20.753Z,100810.69
2022-08-11T08:21:29.169Z,100787.34
2022-08-11T08:24:32.918Z,100791.69
2022-08-11T08:27:35.839Z,100792.50
2022-08-11T08:30:51.723Z,100798.34
2022-08-11T08:33:53.755Z,100793.00
2022-08-11T08:36:56.076Z,100784.69
2022-08-11T08:39:58.833Z,100791.50
2022-08-11T08:43:08.014Z,100789.66
2022-08-11T08:46:10.264Z,100777.16
2022-08-11T08:49:16.363Z,100775.25
2022-08-11T08:52:31.843Z,100774.31
2022-08-11T08:55:37.077Z,100767.50
2022-08-11T08:58:39.480Z,100772.00
2022-08-11T09:01:43.378Z,100766.72
2022-08-11T09:04:49.461Z,100763.16
2022-08-11T09:07:51.612Z,100776.03
2022-08-11T09:11:13.965Z,100774.66
2022-08-11T09:14:54.909Z,100759.59
2022-08-11T09:18:03.788Z,100765.84
2022-08-11T09:21:06.063Z,100744.09
2022-08-11T09:24:26.746Z,100742.56
2022-08-11T09:27:31.060Z,100737.66
2022-08-11T09:30:33.114Z,100739.19
2022-08-11T09:33:36.849Z,100739.19
2022-08-11T09:36:57.742Z,100732.00
2022-08-11T09:40:18.126Z,100730.09
2022-08-11T09:43:40.381Z,100713.59
2022-08-11T09:46:42.360Z,100722.66
2022-08-11T09:49:49.253Z,100721.69
2022-08-11T09:53:16.905Z,100728.91
2022-08-11T09:56:33.792Z,100729.66
2022-08-11T09:59:36.657Z,100727.19
2022-08-11T10:02:46.088Z,100726.91
2022-08-11T10:06:08.118Z,100733.84
2022-08-11T10:09:10.266Z,100724.00
2022-08-11T10:12:13.911Z,100709.28
2022-08-11T10:15:34.702Z,100716.97
2022-08-11T10:18:51.517Z,100710.03
2022-08-11T10:22:12.246Z,100701.84
2022-08-11T10:25:33.319Z,100700.94
2022-08-11T10:29:02.182Z,100702.56
2022-08-11T10:32:17.457Z,100699.69
2022-08-11T10:35:20.706Z,100684.84
2022-08-11T10:38:22.569Z,100683.00
2022-08-11T10:42:06.419Z,100679.75
2022-08-11T10:45:26.040Z,100697.28
2022-08-11T10:48:28.560Z,100688.88
2022-08-11T10:51:51.941Z,100686.09
2022-08-11T10:55:14.415Z,100669.50
2022-08-11T10:58:35.111Z,100678.22
2022-08-11T11:01:44.195Z,100673.50
2022-08-11T11:04:57.991Z,100674.94
2022-08-11T11:08:28.425Z,100669.34
2022-08-11T11:11:50.059Z,100648.75
2022-08-11T11:15:16.112Z,100655.69
2022-08-11T11:18:24.395Z,100650.59
2022-08-11T11:21:26.364Z,100632.06
2022-08-11T11:24:40.256Z,100628.78
2022-08-11T11:27:48.636Z,100631.88
2022-08-11T11:30:57.154Z,100635.62
2022-08-11T11:34:12.286Z,100615.88
2022-08-11T11:37:16.236Z,100629.63
2022-08-11T11:40:21.799Z,100633.69
2022-08-11T11:43:32.573Z,100628.59
2022-08-11T11:46:39.069Z,100633.72
2022-08-11T11:49:44.016Z,100620.37
2022-08-11T11:52:46.325Z,100625.25
2022-08-11T11:55:48.195Z,100626.50
2022-08-11T11:59:08.807Z,100621.56
2022-08-11T12:02:13.761Z,100616.63
2022-08-11T12:05:15.689Z,100613.72
2022-08-11T12:08:17.754Z,100612.25
2022-08-11T12:11:39.099Z,100607.59
2022-08-11T12:14:41.085Z,100603.50
2022-08-11T12:17:43.004Z,100598.62
2022-08-11T12:20:45.451Z,100586.34
2022-08-11T12:24:06.550Z,100589.09
2022-08-11T12:27:25.345Z,100582.66
2022-08-11T12:30:28.146Z,100582.94
2022-08-11T12:33:30.671Z,100566.59
2022-08-11T12:36:34.615Z,100566.06
2022-08-11T12:40:17.007Z,100594.81
2022-08-11T12:43:41.414Z,100582.00
2022-08-11T12:46:44.355Z,100582.28
2022-08-11T12:50:22.964Z,100567.53
2022-08-11T12:53:29.166Z,100569.37
2022-08-11T12:56:52.061Z,100571.88
2022-08-11T13:00:12.885Z,100571.38
2022-08-11T13:03:33.828Z,100566.81
2022-08-11T13:06:37.645Z,100560.06
2022-08-11T13:09:39.885Z,100550.66
2022-08-11T13:12:50.934Z,100547.53
2022-08-11T13:15:53.327Z,100548.75
2022-08-11T13:18:55.865Z,100547.88
2022-08-11T13:21:58.046Z,100555.22
2022-08-11T13:25:00.462Z,100548.66
2022-08-11T13:28:03.478Z,100544.25
2022-08-11T13:31:11.408Z,100556.41
2022-08-11T13:34:15.599Z,100544.53
2022-08-11T13:37:21.049Z,100543.38
2022-08-11T13:40:55.237Z,100548.44
2022-08-11T13:43:58.342Z,100535.87
2022-08-11T13:47:02.657Z,100536.16
2022-08-11T13:50:05.843Z,100531.09
2022-08-11T13:53:07.819Z,100530.56
2022-08-11T13:56:09.805Z,100529.47
2022-08-11T13:59:12.298Z,100523.75
2022-08-11T14:02:28.079Z,100519.75
2022-08-11T14:05:33.641Z,100518.84
2022-08-11T14:08:38.521Z,100521.47
2022-08-11T14:12:21.551Z,100509.22
2022-08-11T14:15:28.077Z,100513.41
2022-08-11T14:18:30.784Z,100514.50
2022-08-11T14:21:55.026Z,100517.56
2022-08-11T14:24:57.482Z,100507.50
2022-08-11T14:28:31.146Z,100502.41
2022-08-11T14:31:21.734Z,100505.97
2022-08-11T14:34:24.377Z,100511.59
2022-08-11T14:37:26.499Z,100506.16
2022-08-11T14:40:47.200Z,100497.41
2022-08-11T14:44:14.048Z,100498.41
2022-08-11T14:47:24.350Z,100500.31
2022-08-11T14:50:27.933Z,100500.00
2022-08-11T14:53:29.880Z,100492.91
2022-08-11T14:56:37.330Z,100497.13
2022-08-11T14:59:39.261Z,100489.38
2022-08-11T15:03:00.206Z,100499.03
2022-08-11T15:06:02.830Z,100492.62
2022-08-11T15:09:08.847Z,100494.81
2022-08-11T15:12:31.586Z,100496.97
2022-08-11T15:15:53.909Z,100497.16
2022-08-11T15:18:55.875Z,100502.94
2022-08-11T15:22:16.461Z,100494.31
2022-08-11T15:25:19.953Z,100495.66
2022-08-11T15:28:40.671Z,100493.44
2022-08-11T15:31:49.221Z,100504.09
2022-08-11T15:35:15.043Z,100500.38
2022-08-11T15:38:17.042Z,100491.28
2022-08-11T15:41:37.861Z,100486.75
2022-08-11T15:45:03.286Z,100485.19
2022-08-11T15:48:10.564Z,100479.41
2022-08-11T15:51:14.383Z,100489.88
2022-08-11T15:54:21.145Z,100482.34
2022-08-11T15:57:41.850Z,100485.38
2022-08-11T16:01:08.657Z,100487.38
2022-08-11T16:04:15.038Z,100492.13
2022-08-11T16:07:26.719Z,100487.25
2022-08-11T16:10:29.082Z,100489.28
2022-08-11T16:13:37.053Z,100486.84
2022-08-11T16:16:39.457Z,100485.91
2022-08-11T16:19:41.496Z,100479.78
2022-08-11T16:23:00.345Z,100480.06
2022-08-11T16:27:10.017Z,100478.47
2022-08-11T16:29:28.174Z,100481.91
2022-08-11T16:32:30.087Z,100487.41
2022-08-11T16:35:54.410Z,100466.31
2022-08-11T16:38:56.669Z,100465.06
2022-08-11T16:43:09.018Z,100459.34
2022-08-11T16:45:58.831Z,100470.50
2022-08-11T16:49:03.066Z,100473.00
2022-08-11T16:52:08.000Z,100470.31
2022-08-11T16:55:10.236Z,100472.56
2022-08-11T16:58:31.005Z,100477.97
2022-08-11T17:01:33.673Z,100482.97
2022-08-11T17:05:01.768Z,100482.50
2022-08-11T17:08:22.795Z,100478.47
2022-08-11T17:11:45.653Z,100476.75
2022-08-11T17:14:52.635Z,100481.13
2022-08-11T17:17:54.494Z,100517.91
2022-08-11T17:20:56.465Z,100504.06
2022-08-11T17:24:08.440Z,100510.84
2022-08-11T17:27:11.068Z,100518.78
2022-08-11T17:30:14.904Z,100511.97
2022-08-11T17:33:35.771Z,100527.53
2022-08-11T17:36:41.609Z,100534.84
2022-08-11T17:39:45.385Z,100537.91
2022-08-11T17:43:06.117Z,100542.94
2022-08-11T17:46:08.345Z,100547.78
2022-08-11T17:49:11.487Z,100552.00
2022-08-11T17:52:35.419Z,100559.59
2022-08-11T17:55:56.079Z,100561.38
2022-08-11T17:59:18.454Z,100560.19
2022-08-11T18:02:40.757Z,100564.69
2022-08-11T18:05:43.733Z,100565.81
2022-08-11T18:09:05.530Z,100566.94
2022-08-11T18:12:26.967Z,100561.34
2022-08-11T18:15:50.018Z,100561.50
2022-08-11T18:19:16.311Z,100550.31
2022-08-11T18:22:44.264Z,100570.88
2022-08-11T18:26:07.533Z,100573.19
2022-08-11T18:29:28.513Z,100571.16
2022-08-11T18:32:50.144Z,100571.81
2022-08-11T18:36:16.691Z,100577.53
2022-08-11T18:39:37.328Z,100571.91
2022-08-11T18:42:58.229Z,100585.22
2022-08-11T18:46:23.686Z,100588.03
2022-08-11T18:50:02.148Z,100583.56
2022-08-11T18:53:24.572Z,100585.19
2022-08-11T18:56:45.317Z,100585.31
2022-08-11T19:00:06.146Z,100583.94
2022-08-11T19:03:26.968Z,100583.81
2022-08-11T19:06:47.401Z,100597.09
2022-08-11T19:10:07.909Z,100576.28
2022-08-11T19:13:28.305Z,100595.53
2022-08-11T19:16:48.821Z,100590.63
2022-08-11T19:20:09.061Z,100589.00
2022-08-11T19:23:30.005Z,100587.91
2022-08-11T19:26:53.083Z,100594.13
2022-08-11T19:30:14.497Z,100588.31
2022-08-11T19:33:59.784Z,100593.00
2022-08-11T19:37:15.334Z,100583.09
2022-08-11T19:40:35.846Z,100589.22
2022-08-11T19:43:56.301Z,100583.53
2022-08-11T19:47:16.904Z,100582.84
2022-08-11T19:50:37.813Z,100573.78
2022-08-11T19:54:00.946Z,100574.62
2022-08-11T19:57:22.410Z,100575.75
2022-08-11T20:00:43.130Z,100588.22
2022-08-11T20:04:03.694Z,100585.94
2022-08-11T20:07:24.079Z,100585.66
2022-08-11T20:10:44.410Z,100594.97
2022-08-11T20:14:05.142Z,100580.28
2022-08-11T20:17:26.130Z,100586.78
2022-08-11T20:20:46.638Z,100582.53
2022-08-11T20:24:08.489Z,100581.81
2022-08-11T20:27:29.275Z,100586.13
2022-08-11T20:30:51.841Z,100575.63
2022-08-11T20:34:13.153Z,100568.50
2022-08-11T20:37:33.981Z,100582.34
2022-08-11T20:40:54.495Z,100590.91
2022-08-11T20:44:15.403Z,100588.41
2022-08-11T20:47:56.499Z,100589.41
2022-08-11T20:51:16.621Z,100591.00
2022-08-11T20:54:38.270Z,100579.56
2022-08-11T20:58:05.821Z,100591.31
2022-08-11T21:01:39.001Z,100595.81
2022-08-11T21:05:01.841Z,100598.75
2022-08-11T21:08:25.349Z,100588.31
2022-08-11T21:11:46.012Z,100599.50
2022-08-11T21:15:06.548Z,100599.22
2022-08-11T21:18:28.217Z,100592.28
2022-08-11T21:21:49.778Z,100606.75
2022-08-11T21:25:15.486Z,100594.53
2022-08-11T21:28:36.073Z,100615.44
2022-08-11T21:31:56.532Z,100617.78
2022-08-11T21:35:16.851Z,100625.31
2022-08-11T21:38:37.536Z,100622.44
2022-08-11T21:41:57.808Z,100623.22
2022-08-11T21:45:18.284Z,100629.00
2022-08-11T21:48:38.584Z,100627.88
2022-08-11T21:51:59.115Z,100625.28
2022-08-11T21:55:19.701Z,100618.62
2022-08-11T21:58:40.299Z,100628.53
2022-08-11T22:02:01.368Z,100626.69
2022-08-11T22:05:22.071Z,100617.25
2022-08-11T22:08:42.379Z,100624.81
2022-08-11T22:12:35.222Z,100633.28
2022-08-11T22:15:43.081Z,100604.91
2022-08-11T22:19:04.555Z,100626.28
2022-08-11T22:22:26.334Z,100621.56
2022-08-11T22:25:55.115Z,100629.41
2022-08-11T22:29:20.288Z,100623.03
2022-08-11T22:32:59.138Z,100632.28
2022-08-11T22:36:19.403Z,100627.06
2022-08-11T22:39:39.987Z,100624.38
2022-08-11T22:43:01.200Z,100613.81
2022-08-11T22:46:22.117Z,100602.69
2022-08-11T22:49:57.592Z,100600.94
2022-08-11T22:53:18.921Z,100600.63
2022-08-11T22:56:39.321Z,100583.38
2022-08-11T22:59:59.710Z,100607.13
2022-08-11T23:03:34.229Z,100609.34
2022-08-11T23:06:58.875Z,100600.16
2022-08-11T23:10:19.520Z,100604.19
2022-08-11T23:13:40.094Z,100593.09
2022-08-11T23:17:00.602Z,100606.53
2022-08-11T23:20:28.826Z,100595.91
2022-08-11T23:23:50.834Z,100601.31
2022-08-11T23:27:11.478Z,100589.25
2022-08-11T23:30:31.777Z,100589.69
2022-08-11T23:33:52.322Z,100589.44
2022-08-11T23:37:13.137Z,100588.56
2022-08-11T23:40:34.125Z,100582.59
2022-08-11T23:43:54.675Z,100584.75
2022-08-11T23:47:17.902Z,100584.62
2022-08-11T23:50:38.449Z,100573.25
2022-08-11T23:53:59.024Z,100574.91
2022-08-11T23:57:19.494Z,100579.19
